sensor_id;sensor_type;location;lat;lon;timestamp;P1;durP1;ratioP1;P2;durP2;ratioP2
38613;SDS011;24369;49.480;8.488;2022-08-19T00:00:43;244.60;;;224.52;;
38613;SDS011;24369;49.480;8.488;2022-08-19T00:03:09;258.75;;;236.30;;
38613;SDS011;24369;49.480;8.488;2022-08-19T00:05:35;255.32;;;233.73;;
38613;SDS011;24369;49.480;8.488;2022-08-19T00:08:43;261.30;;;240.27;;
38613;SDS011;24369;49.480;8.488;2022-08-19T00:11:10;276.08;;;253.55;;
38613;SDS011;24369;49.480;8.488;2022-08-19T00:13:35;250.02;;;230.88;;
38613;SDS011;24369;49.480;8.488;2022-08-19T00:16:01;262.73;;;240.90;;
38613;SDS011;24369;49.480;8.488;2022-08-19T00:18:27;249.25;;;229.00;;
38613;SDS011;24369;49.480;8.488;2022-08-19T00:20:53;244.85;;;222.65;;
38613;SDS011;24369;49.480;8.488;2022-08-19T00:23:18;233.00;;;213.60;;
38613;SDS011;24369;49.480;8.488;2022-08-19T00:25:44;251.55;;;231.75;;
38613;SDS011;24369;49.480;8.488;2022-08-19T00:28:10;252.68;;;231.73;;
38613;SDS011;24369;49.480;8.488;2022-08-19T00:33:11;265.02;;;244.30;;
38613;SDS011;24369;49.480;8.488;2022-08-19T00:35:38;246.32;;;226.88;;
38613;SDS011;24369;49.480;8.488;2022-08-19T00:38:04;260.40;;;239.40;;
38613;SDS011;24369;49.480;8.488;2022-08-19T00:40:31;261.38;;;241.00;;
38613;SDS011;24369;49.480;8.488;2022-08-19T00:42:57;271.42;;;250.07;;
38613;SDS011;24369;49.480;8.488;2022-08-19T00:45:24;264.85;;;244.73;;
38613;SDS011;24369;49.480;8.488;2022-08-19T00:47:52;258.55;;;238.73;;
38613;SDS011;24369;49.480;8.488;2022-08-19T00:50:18;253.18;;;232.55;;
38613;SDS011;24369;49.480;8.488;2022-08-19T00:52:46;270.40;;;248.13;;
38613;SDS011;24369;49.480;8.488;2022-08-19T00:56:38;241.77;;;222.95;;
38613;SDS011;24369;49.480;8.488;2022-08-19T00:59:05;281.95;;;258.58;;
38613;SDS011;24369;49.480;8.488;2022-08-19T01:01:40;249.48;;;230.57;;
38613;SDS011;24369;49.480;8.488;2022-08-19T01:04:08;273.45;;;251.63;;
38613;SDS011;24369;49.480;8.488;2022-08-19T01:06:33;242.88;;;224.07;;
38613;SDS011;24369;49.480;8.488;2022-08-19T01:09:02;246.80;;;225.88;;
38613;SDS011;24369;49.480;8.488;2022-08-19T01:11:28;245.82;;;226.50;;
38613;SDS011;24369;49.480;8.488;2022-08-19T01:13:55;260.40;;;238.98;;
38613;SDS011;24369;49.480;8.488;2022-08-19T01:16:21;256.15;;;235.13;;
38613;SDS011;24369;49.480;8.488;2022-08-19T01:20:21;221.85;;;203.98;;
38613;SDS011;24369;49.480;8.488;2022-08-19T01:22:58;260.70;;;239.60;;
38613;SDS011;24369;49.480;8.488;2022-08-19T01:25:46;246.20;;;227.40;;
38613;SDS011;24369;49.480;8.488;2022-08-19T01:28:22;259.02;;;237.48;;
38613;SDS011;24369;49.480;8.488;2022-08-19T01:30:53;246.82;;;226.95;;
38613;SDS011;24369;49.480;8.488;2022-08-19T01:33:19;247.23;;;227.65;;
38613;SDS011;24369;49.480;8.488;2022-08-19T01:35:45;243.38;;;223.13;;
38613;SDS011;24369;49.480;8.488;2022-08-19T01:38:20;262.92;;;240.68;;
38613;SDS011;24369;49.480;8.488;2022-08-19T01:40:48;249.48;;;228.15;;
38613;SDS011;24369;49.480;8.488;2022-08-19T01:44:45;239.48;;;219.88;;
38613;SDS011;24369;49.480;8.488;2022-08-19T01:47:11;257.63;;;236.27;;
38613;SDS011;24369;49.480;8.488;2022-08-19T01:49:36;247.45;;;228.10;;
38613;SDS011;24369;49.480;8.488;2022-08-19T01:52:03;249.75;;;229.05;;
38613;SDS011;24369;49.480;8.488;2022-08-19T01:54:29;245.07;;;224.98;;
38613;SDS011;24369;49.480;8.488;2022-08-19T01:57:00;259.88;;;238.82;;
38613;SDS011;24369;49.480;8.488;2022-08-19T01:59:28;247.73;;;227.68;;
38613;SDS011;24369;49.480;8.488;2022-08-19T02:01:55;253.38;;;231.73;;
38613;SDS011;24369;49.480;8.488;2022-08-19T02:04:20;265.83;;;242.70;;
38613;SDS011;24369;49.480;8.488;2022-08-19T02:08:27;253.30;;;231.98;;
38613;SDS011;24369;49.480;8.488;2022-08-19T02:10:53;267.55;;;244.85;;
38613;SDS011;24369;49.480;8.488;2022-08-19T02:13:18;260.02;;;238.57;;
38613;SDS011;24369;49.480;8.488;2022-08-19T02:15:44;248.32;;;228.98;;
38613;SDS011;24369;49.480;8.488;2022-08-19T02:18:10;262.00;;;240.88;;
38613;SDS011;24369;49.480;8.488;2022-08-19T02:20:36;256.27;;;235.60;;
38613;SDS011;24369;49.480;8.488;2022-08-19T02:23:03;274.52;;;251.57;;
38613;SDS011;24369;49.480;8.488;2022-08-19T02:25:29;247.75;;;227.20;;
38613;SDS011;24369;49.480;8.488;2022-08-19T02:27:54;252.77;;;231.80;;
38613;SDS011;24369;49.480;8.488;2022-08-19T02:33:07;250.80;;;230.30;;
38613;SDS011;24369;49.480;8.488;2022-08-19T02:35:33;240.52;;;220.73;;
38613;SDS011;24369;49.480;8.488;2022-08-19T02:37:59;260.85;;;240.20;;
38613;SDS011;24369;49.480;8.488;2022-08-19T02:40:50;269.23;;;247.48;;
38613;SDS011;24369;49.480;8.488;2022-08-19T02:43:17;252.77;;;232.43;;
38613;SDS011;24369;49.480;8.488;2022-08-19T02:45:45;234.55;;;215.05;;
38613;SDS011;24369;49.480;8.488;2022-08-19T02:48:13;261.08;;;239.27;;
38613;SDS011;24369;49.480;8.488;2022-08-19T02:50:42;240.70;;;219.93;;
38613;SDS011;24369;49.480;8.488;2022-08-19T02:53:08;249.40;;;228.32;;
38613;SDS011;24369;49.480;8.488;2022-08-19T02:57:10;237.27;;;217.00;;
38613;SDS011;24369;49.480;8.488;2022-08-19T02:59:35;246.68;;;226.75;;
38613;SDS011;24369;49.480;8.488;2022-08-19T03:02:00;238.88;;;218.63;;
38613;SDS011;24369;49.480;8.488;2022-08-19T03:04:26;249.45;;;228.38;;
38613;SDS011;24369;49.480;8.488;2022-08-19T03:06:52;236.15;;;216.50;;
38613;SDS011;24369;49.480;8.488;2022-08-19T03:09:18;245.27;;;224.85;;
38613;SDS011;24369;49.480;8.488;2022-08-19T03:11:44;239.38;;;220.05;;
38613;SDS011;24369;49.480;8.488;2022-08-19T03:14:11;253.70;;;232.07;;
38613;SDS011;24369;49.480;8.488;2022-08-19T03:16:42;232.15;;;211.98;;
38613;SDS011;24369;49.480;8.488;2022-08-19T03:21:22;248.82;;;227.23;;
38613;SDS011;24369;49.480;8.488;2022-08-19T03:23:50;231.63;;;212.80;;
38613;SDS011;24369;49.480;8.488;2022-08-19T03:26:18;255.68;;;234.35;;
38613;SDS011;24369;49.480;8.488;2022-08-19T03:28:44;245.57;;;224.85;;
38613;SDS011;24369;49.480;8.488;2022-08-19T03:31:14;267.17;;;244.57;;
38613;SDS011;24369;49.480;8.488;2022-08-19T03:33:41;240.23;;;220.40;;
38613;SDS011;24369;49.480;8.488;2022-08-19T03:38:38;278.42;;;255.10;;
38613;SDS011;24369;49.480;8.488;2022-08-19T03:41:06;258.15;;;236.98;;
38613;SDS011;24369;49.480;8.488;2022-08-19T03:45:41;259.98;;;239.65;;
38613;SDS011;24369;49.480;8.488;2022-08-19T03:48:07;252.98;;;232.43;;
38613;SDS011;24369;49.480;8.488;2022-08-19T03:50:33;253.55;;;233.43;;
38613;SDS011;24369;49.480;8.488;2022-08-19T03:53:03;250.77;;;230.65;;
38613;SDS011;24369;49.480;8.488;2022-08-19T03:55:29;233.45;;;214.27;;
38613;SDS011;24369;49.480;8.488;2022-08-19T03:57:55;220.18;;;201.38;;
38613;SDS011;24369;49.480;8.488;2022-08-19T04:00:21;235.98;;;215.38;;
38613;SDS011;24369;49.480;8.488;2022-08-19T04:02:46;220.90;;;201.48;;
38613;SDS011;24369;49.480;8.488;2022-08-19T04:05:12;245.80;;;224.38;;
38613;SDS011;24369;49.480;8.488;2022-08-19T04:10:18;274.65;;;251.73;;
38613;SDS011;24369;49.480;8.488;2022-08-19T04:12:44;256.52;;;235.82;;
38613;SDS011;24369;49.480;8.488;2022-08-19T04:15:09;270.48;;;248.65;;
38613;SDS011;24369;49.480;8.488;2022-08-19T04:17:35;246.52;;;226.70;;
38613;SDS011;24369;49.480;8.488;2022-08-19T04:20:00;248.75;;;228.85;;
38613;SDS011;24369;49.480;8.488;2022-08-19T04:22:26;252.35;;;232.05;;
38613;SDS011;24369;49.480;8.488;2022-08-19T04:24:51;229.75;;;210.52;;
38613;SDS011;24369;49.480;8.488;2022-08-19T04:27:16;262.30;;;240.90;;
38613;SDS011;24369;49.480;8.488;2022-08-19T04:29:42;257.65;;;238.02;;
38613;SDS011;24369;49.480;8.488;2022-08-19T04:34:42;250.13;;;229.07;;
38613;SDS011;24369;49.480;8.488;2022-08-19T04:37:08;233.35;;;214.23;;
38613;SDS011;24369;49.480;8.488;2022-08-19T04:39:36;241.38;;;222.35;;
38613;SDS011;24369;49.480;8.488;2022-08-19T04:42:21;228.10;;;208.52;;
38613;SDS011;24369;49.480;8.488;2022-08-19T04:45:05;242.43;;;221.25;;
38613;SDS011;24369;49.480;8.488;2022-08-19T04:47:34;226.90;;;207.85;;
38613;SDS011;24369;49.480;8.488;2022-08-19T04:50:02;235.38;;;215.45;;
38613;SDS011;24369;49.480;8.488;2022-08-19T04:52:27;238.82;;;217.20;;
38613;SDS011;24369;49.480;8.488;2022-08-19T04:54:53;238.20;;;217.82;;
38613;SDS011;24369;49.480;8.488;2022-08-19T04:58:25;258.50;;;236.02;;
38613;SDS011;24369;49.480;8.488;2022-08-19T05:00:52;225.05;;;205.93;;
38613;SDS011;24369;49.480;8.488;2022-08-19T05:03:18;235.70;;;215.77;;
38613;SDS011;24369;49.480;8.488;2022-08-19T05:05:44;233.57;;;213.95;;
38613;SDS011;24369;49.480;8.488;2022-08-19T05:08:13;250.38;;;228.40;;
38613;SDS011;24369;49.480;8.488;2022-08-19T05:10:48;248.80;;;229.15;;
38613;SDS011;24369;49.480;8.488;2022-08-19T05:13:16;272.40;;;251.07;;
38613;SDS011;24369;49.480;8.488;2022-08-19T05:15:43;230.88;;;211.68;;
38613;SDS011;24369;49.480;8.488;2022-08-19T05:18:09;227.65;;;208.15;;
38613;SDS011;24369;49.480;8.488;2022-08-19T05:22:36;263.92;;;242.50;;
38613;SDS011;24369;49.480;8.488;2022-08-19T05:25:06;251.88;;;231.52;;
38613;SDS011;24369;49.480;8.488;2022-08-19T05:27:35;236.10;;;215.70;;
38613;SDS011;24369;49.480;8.488;2022-08-19T05:30:00;255.48;;;235.73;;
38613;SDS011;24369;49.480;8.488;2022-08-19T05:32:26;244.95;;;223.80;;
38613;SDS011;24369;49.480;8.488;2022-08-19T05:34:52;226.38;;;207.68;;
38613;SDS011;24369;49.480;8.488;2022-08-19T05:37:18;244.40;;;223.23;;
38613;SDS011;24369;49.480;8.488;2022-08-19T05:39:44;239.05;;;219.23;;
38613;SDS011;24369;49.480;8.488;2022-08-19T05:42:10;261.70;;;239.02;;
38613;SDS011;24369;49.480;8.488;2022-08-19T05:46:47;237.48;;;218.73;;
38613;SDS011;24369;49.480;8.488;2022-08-19T05:49:14;256.67;;;236.13;;
38613;SDS011;24369;49.480;8.488;2022-08-19T05:51:41;239.23;;;220.20;;
38613;SDS011;24369;49.480;8.488;2022-08-19T05:54:07;265.30;;;243.82;;
38613;SDS011;24369;49.480;8.488;2022-08-19T05:56:33;236.50;;;217.52;;
38613;SDS011;24369;49.480;8.488;2022-08-19T05:59:03;243.30;;;223.23;;
38613;SDS011;24369;49.480;8.488;2022-08-19T06:01:33;245.32;;;225.45;;
38613;SDS011;24369;49.480;8.488;2022-08-19T06:03:59;271.33;;;250.82;;
38613;SDS011;24369;49.480;8.488;2022-08-19T06:08:57;248.23;;;228.68;;
38613;SDS011;24369;49.480;8.488;2022-08-19T06:11:25;252.60;;;232.55;;
38613;SDS011;24369;49.480;8.488;2022-08-19T06:13:59;228.40;;;210.43;;
38613;SDS011;24369;49.480;8.488;2022-08-19T06:16:27;267.45;;;245.38;;
38613;SDS011;24369;49.480;8.488;2022-08-19T06:18:53;238.60;;;219.95;;
38613;SDS011;24369;49.480;8.488;2022-08-19T06:21:22;252.73;;;232.27;;
38613;SDS011;24369;49.480;8.488;2022-08-19T06:23:49;247.05;;;226.68;;
38613;SDS011;24369;49.480;8.488;2022-08-19T06:26:15;238.82;;;218.63;;
38613;SDS011;24369;49.480;8.488;2022-08-19T06:28:41;253.82;;;233.00;;
38613;SDS011;24369;49.480;8.488;2022-08-19T06:33:23;253.95;;;234.43;;
38613;SDS011;24369;49.480;8.488;2022-08-19T06:35:49;259.98;;;240.07;;
38613;SDS011;24369;49.480;8.488;2022-08-19T06:38:14;255.07;;;233.88;;
38613;SDS011;24369;49.480;8.488;2022-08-19T06:40:39;257.33;;;237.20;;
38613;SDS011;24369;49.480;8.488;2022-08-19T06:43:05;240.75;;;222.20;;
38613;SDS011;24369;49.480;8.488;2022-08-19T06:45:30;257.30;;;237.25;;
38613;SDS011;24369;49.480;8.488;2022-08-19T06:47:56;245.45;;;225.70;;
38613;SDS011;24369;49.480;8.488;2022-08-19T06:50:24;267.85;;;246.45;;
38613;SDS011;24369;49.480;8.488;2022-08-19T06:52:49;254.75;;;233.50;;
38613;SDS011;24369;49.480;8.488;2022-08-19T06:57:49;263.45;;;242.93;;
38613;SDS011;24369;49.480;8.488;2022-08-19T07:00:18;259.48;;;238.95;;
38613;SDS011;24369;49.480;8.488;2022-08-19T07:02:43;256.83;;;236.63;;
38613;SDS011;24369;49.480;8.488;2022-08-19T07:05:09;270.05;;;248.15;;
38613;SDS011;24369;49.480;8.488;2022-08-19T07:07:35;269.60;;;248.48;;
38613;SDS011;24369;49.480;8.488;2022-08-19T07:10:00;253.20;;;233.85;;
38613;SDS011;24369;49.480;8.488;2022-08-19T07:12:27;300.33;;;268.63;;
38613;SDS011;24369;49.480;8.488;2022-08-19T07:14:57;280.17;;;257.35;;
38613;SDS011;24369;49.480;8.488;2022-08-19T07:17:23;296.95;;;271.85;;
38613;SDS011;24369;49.480;8.488;2022-08-19T07:21:33;259.13;;;238.82;;
38613;SDS011;24369;49.480;8.488;2022-08-19T07:24:00;268.05;;;246.63;;
38613;SDS011;24369;49.480;8.488;2022-08-19T07:26:28;265.95;;;244.23;;
38613;SDS011;24369;49.480;8.488;2022-08-19T07:28:58;324.20;;;297.92;;
38613;SDS011;24369;49.480;8.488;2022-08-19T07:31:26;309.63;;;285.77;;
38613;SDS011;24369;49.480;8.488;2022-08-19T07:33:52;301.02;;;279.30;;
38613;SDS011;24369;49.480;8.488;2022-08-19T07:36:21;285.70;;;261.58;;
38613;SDS011;24369;49.480;8.488;2022-08-19T07:38:57;277.48;;;257.63;;
38613;SDS011;24369;49.480;8.488;2022-08-19T07:44:00;257.45;;;237.30;;
38613;SDS011;24369;49.480;8.488;2022-08-19T07:46:30;266.83;;;245.02;;
38613;SDS011;24369;49.480;8.488;2022-08-19T07:48:56;266.88;;;246.45;;
38613;SDS011;24369;49.480;8.488;2022-08-19T07:51:22;283.90;;;260.13;;
38613;SDS011;24369;49.480;8.488;2022-08-19T07:53:50;289.63;;;266.35;;
38613;SDS011;24369;49.480;8.488;2022-08-19T07:56:17;271.75;;;249.48;;
38613;SDS011;24369;49.480;8.488;2022-08-19T07:58:44;269.95;;;248.27;;
38613;SDS011;24369;49.480;8.488;2022-08-19T08:01:12;240.18;;;221.38;;
38613;SDS011;24369;49.480;8.488;2022-08-19T08:03:40;270.88;;;249.02;;
38613;SDS011;24369;49.480;8.488;2022-08-19T08:08:26;281.27;;;258.27;;
38613;SDS011;24369;49.480;8.488;2022-08-19T08:11:11;279.63;;;259.10;;
38613;SDS011;24369;49.480;8.488;2022-08-19T08:13:37;260.23;;;239.77;;
38613;SDS011;24369;49.480;8.488;2022-08-19T08:16:03;250.65;;;231.55;;
38613;SDS011;24369;49.480;8.488;2022-08-19T08:18:28;256.35;;;234.88;;
38613;SDS011;24369;49.480;8.488;2022-08-19T08:20:54;269.35;;;248.48;;
38613;SDS011;24369;49.480;8.488;2022-08-19T08:23:21;243.25;;;223.55;;
38613;SDS011;24369;49.480;8.488;2022-08-19T08:25:47;242.82;;;222.95;;
38613;SDS011;24369;49.480;8.488;2022-08-19T08:30:55;234.05;;;215.77;;
38613;SDS011;24369;49.480;8.488;2022-08-19T08:33:22;262.42;;;240.82;;
38613;SDS011;24369;49.480;8.488;2022-08-19T08:35:48;249.50;;;229.57;;
38613;SDS011;24369;49.480;8.488;2022-08-19T08:38:14;273.25;;;250.13;;
38613;SDS011;24369;49.480;8.488;2022-08-19T08:40:48;270.05;;;246.25;;
38613;SDS011;24369;49.480;8.488;2022-08-19T08:46:20;255.10;;;235.45;;
38613;SDS011;24369;49.480;8.488;2022-08-19T08:48:54;263.67;;;241.00;;
38613;SDS011;24369;49.480;8.488;2022-08-19T08:51:33;239.10;;;217.00;;
38613;SDS011;24369;49.480;8.488;2022-08-19T08:55:51;253.35;;;233.20;;
38613;SDS011;24369;49.480;8.488;2022-08-19T09:00:55;260.52;;;240.23;;
38613;SDS011;24369;49.480;8.488;2022-08-19T09:03:24;238.52;;;219.32;;
38613;SDS011;24369;49.480;8.488;2022-08-19T09:08:29;233.27;;;214.30;;
38613;SDS011;24369;49.480;8.488;2022-08-19T09:12:02;230.30;;;210.82;;
38613;SDS011;24369;49.480;8.488;2022-08-19T09:18:17;239.75;;;220.90;;
38613;SDS011;24369;49.480;8.488;2022-08-19T09:20:43;298.77;;;274.73;;
38613;SDS011;24369;49.480;8.488;2022-08-19T09:23:12;235.48;;;212.65;;
38613;SDS011;24369;49.480;8.488;2022-08-19T09:25:38;223.18;;;204.00;;
38613;SDS011;24369;49.480;8.488;2022-08-19T09:28:05;236.45;;;215.10;;
38613;SDS011;24369;49.480;8.488;2022-08-19T09:30:33;245.18;;;224.43;;
38613;SDS011;24369;49.480;8.488;2022-08-19T09:35:30;258.77;;;235.82;;
38613;SDS011;24369;49.480;8.488;2022-08-19T09:37:56;257.02;;;235.70;;
38613;SDS011;24369;49.480;8.488;2022-08-19T09:41:44;265.13;;;244.77;;
38613;SDS011;24369;49.480;8.488;2022-08-19T09:44:09;237.80;;;219.50;;
38613;SDS011;24369;49.480;8.488;2022-08-19T09:46:36;231.15;;;212.98;;
38613;SDS011;24369;49.480;8.488;2022-08-19T09:49:02;258.75;;;237.77;;
38613;SDS011;24369;49.480;8.488;2022-08-19T09:51:29;240.38;;;220.40;;
38613;SDS011;24369;49.480;8.488;2022-08-19T09:53:54;241.32;;;222.32;;
38613;SDS011;24369;49.480;8.488;2022-08-19T09:56:24;235.57;;;215.95;;
38613;SDS011;24369;49.480;8.488;2022-08-19T09:58:49;228.15;;;209.43;;
38613;SDS011;24369;49.480;8.488;2022-08-19T10:01:25;227.05;;;207.70;;
38613;SDS011;24369;49.480;8.488;2022-08-19T10:03:54;239.43;;;218.57;;
38613;SDS011;24369;49.480;8.488;2022-08-19T10:09:00;216.07;;;197.35;;
38613;SDS011;24369;49.480;8.488;2022-08-19T10:11:26;233.40;;;212.75;;
38613;SDS011;24369;49.480;8.488;2022-08-19T10:13:51;230.23;;;209.82;;
38613;SDS011;24369;49.480;8.488;2022-08-19T10:16:18;237.30;;;217.45;;
38613;SDS011;24369;49.480;8.488;2022-08-19T10:18:47;247.70;;;225.60;;
38613;SDS011;24369;49.480;8.488;2022-08-19T10:21:20;226.02;;;206.52;;
38613;SDS011;24369;49.480;8.488;2022-08-19T10:23:48;223.60;;;203.15;;
38613;SDS011;24369;49.480;8.488;2022-08-19T10:26:18;211.98;;;194.85;;
38613;SDS011;24369;49.480;8.488;2022-08-19T10:28:45;226.55;;;204.32;;
38613;SDS011;24369;49.480;8.488;2022-08-19T10:33:56;215.73;;;198.13;;
38613;SDS011;24369;49.480;8.488;2022-08-19T10:36:26;213.80;;;195.60;;
38613;SDS011;24369;49.480;8.488;2022-08-19T10:38:54;241.77;;;220.80;;
38613;SDS011;24369;49.480;8.488;2022-08-19T10:41:25;225.20;;;205.90;;
38613;SDS011;24369;49.480;8.488;2022-08-19T10:43:53;246.90;;;223.23;;
38613;SDS011;24369;49.480;8.488;2022-08-19T10:46:22;223.00;;;203.15;;
38613;SDS011;24369;49.480;8.488;2022-08-19T10:48:49;231.27;;;211.13;;
38613;SDS011;24369;49.480;8.488;2022-08-19T10:51:14;235.65;;;217.20;;
38613;SDS011;24369;49.480;8.488;2022-08-19T10:54:00;245.63;;;225.35;;
38613;SDS011;24369;49.480;8.488;2022-08-19T10:59:15;249.35;;;228.38;;
38613;SDS011;24369;49.480;8.488;2022-08-19T11:01:43;228.63;;;209.25;;
38613;SDS011;24369;49.480;8.488;2022-08-19T11:04:09;214.50;;;197.68;;
38613;SDS011;24369;49.480;8.488;2022-08-19T11:06:38;237.48;;;216.63;;
38613;SDS011;24369;49.480;8.488;2022-08-19T11:09:08;233.52;;;213.20;;
38613;SDS011;24369;49.480;8.488;2022-08-19T11:11:35;215.55;;;195.52;;
38613;SDS011;24369;49.480;8.488;2022-08-19T11:14:05;206.80;;;189.30;;
38613;SDS011;24369;49.480;8.488;2022-08-19T11:16:31;219.00;;;200.73;;
38613;SDS011;24369;49.480;8.488;2022-08-19T11:18:57;246.60;;;225.55;;
38613;SDS011;24369;49.480;8.488;2022-08-19T11:23:41;245.07;;;223.73;;
38613;SDS011;24369;49.480;8.488;2022-08-19T11:26:08;209.57;;;191.40;;
38613;SDS011;24369;49.480;8.488;2022-08-19T11:28:34;219.43;;;200.20;;
38613;SDS011;24369;49.480;8.488;2022-08-19T11:31:00;221.45;;;202.15;;
38613;SDS011;24369;49.480;8.488;2022-08-19T11:33:26;208.85;;;189.50;;
38613;SDS011;24369;49.480;8.488;2022-08-19T11:35:52;214.07;;;194.80;;
38613;SDS011;24369;49.480;8.488;2022-08-19T11:38:18;204.40;;;186.98;;
38613;SDS011;24369;49.480;8.488;2022-08-19T11:40:43;216.13;;;196.20;;
38613;SDS011;24369;49.480;8.488;2022-08-19T11:43:09;212.60;;;195.18;;
38613;SDS011;24369;49.480;8.488;2022-08-19T11:45:34;221.45;;;200.90;;
38613;SDS011;24369;49.480;8.488;2022-08-19T11:49:53;209.13;;;191.30;;
38613;SDS011;24369;49.480;8.488;2022-08-19T11:52:19;212.70;;;193.52;;
38613;SDS011;24369;49.480;8.488;2022-08-19T11:54:44;217.98;;;199.60;;
38613;SDS011;24369;49.480;8.488;2022-08-19T11:57:10;218.43;;;201.23;;
38613;SDS011;24369;49.480;8.488;2022-08-19T11:59:35;204.88;;;187.93;;
38613;SDS011;24369;49.480;8.488;2022-08-19T12:02:00;210.40;;;193.05;;
38613;SDS011;24369;49.480;8.488;2022-08-19T12:04:26;208.90;;;191.40;;
38613;SDS011;24369;49.480;8.488;2022-08-19T12:06:51;219.77;;;199.77;;
38613;SDS011;24369;49.480;8.488;2022-08-19T12:09:16;211.05;;;192.98;;
38613;SDS011;24369;49.480;8.488;2022-08-19T12:14:05;206.23;;;188.95;;
38613;SDS011;24369;49.480;8.488;2022-08-19T12:16:33;221.63;;;203.32;;
38613;SDS011;24369;49.480;8.488;2022-08-19T12:18:59;222.10;;;203.68;;
38613;SDS011;24369;49.480;8.488;2022-08-19T12:21:29;227.48;;;208.55;;
38613;SDS011;24369;49.480;8.488;2022-08-19T12:23:56;226.27;;;207.80;;
38613;SDS011;24369;49.480;8.488;2022-08-19T12:26:23;229.88;;;210.93;;
38613;SDS011;24369;49.480;8.488;2022-08-19T12:28:50;211.18;;;193.25;;
38613;SDS011;24369;49.480;8.488;2022-08-19T12:31:16;213.25;;;195.82;;
38613;SDS011;24369;49.480;8.488;2022-08-19T12:33:42;216.82;;;196.38;;
38613;SDS011;24369;49.480;8.488;2022-08-19T12:36:08;208.43;;;190.95;;
38613;SDS011;24369;49.480;8.488;2022-08-19T12:40:01;214.25;;;197.02;;
38613;SDS011;24369;49.480;8.488;2022-08-19T12:42:28;230.90;;;212.07;;
38613;SDS011;24369;49.480;8.488;2022-08-19T12:44:55;217.35;;;200.38;;
38613;SDS011;24369;49.480;8.488;2022-08-19T12:47:21;206.05;;;188.90;;
38613;SDS011;24369;49.480;8.488;2022-08-19T12:49:46;217.05;;;198.38;;
38613;SDS011;24369;49.480;8.488;2022-08-19T12:52:14;207.88;;;190.73;;
38613;SDS011;24369;49.480;8.488;2022-08-19T12:54:41;235.05;;;215.20;;
38613;SDS011;24369;49.480;8.488;2022-08-19T12:57:08;216.00;;;197.77;;
38613;SDS011;24369;49.480;8.488;2022-08-19T12:59:35;225.07;;;202.65;;
38613;SDS011;24369;49.480;8.488;2022-08-19T13:02:02;214.05;;;195.65;;
38613;SDS011;24369;49.480;8.488;2022-08-19T13:05:25;184.68;;;169.85;;
38613;SDS011;24369;49.480;8.488;2022-08-19T13:07:53;183.93;;;168.73;;
38613;SDS011;24369;49.480;8.488;2022-08-19T13:10:22;189.63;;;172.98;;
38613;SDS011;24369;49.480;8.488;2022-08-19T13:12:50;206.20;;;186.70;;
38613;SDS011;24369;49.480;8.488;2022-08-19T13:15:17;192.30;;;176.65;;
38613;SDS011;24369;49.480;8.488;2022-08-19T13:17:46;191.70;;;175.20;;
38613;SDS011;24369;49.480;8.488;2022-08-19T13:20:16;198.88;;;180.75;;
38613;SDS011;24369;49.480;8.488;2022-08-19T13:22:42;198.20;;;179.95;;
38613;SDS011;24369;49.480;8.488;2022-08-19T13:25:09;178.68;;;162.30;;
38613;SDS011;24369;49.480;8.488;2022-08-19T13:28:53;184.88;;;168.32;;
38613;SDS011;24369;49.480;8.488;2022-08-19T13:31:39;199.02;;;180.32;;
38613;SDS011;24369;49.480;8.488;2022-08-19T13:34:31;185.88;;;169.27;;
38613;SDS011;24369;49.480;8.488;2022-08-19T13:37:00;172.20;;;156.93;;
38613;SDS011;24369;49.480;8.488;2022-08-19T13:39:28;178.55;;;162.75;;
38613;SDS011;24369;49.480;8.488;2022-08-19T13:41:54;196.32;;;177.52;;
38613;SDS011;24369;49.480;8.488;2022-08-19T13:44:19;184.48;;;168.15;;
38613;SDS011;24369;49.480;8.488;2022-08-19T13:46:45;189.57;;;170.43;;
38613;SDS011;24369;49.480;8.488;2022-08-19T13:49:12;186.90;;;170.10;;
38613;SDS011;24369;49.480;8.488;2022-08-19T13:53:00;192.85;;;175.60;;
38613;SDS011;24369;49.480;8.488;2022-08-19T13:55:27;177.50;;;161.77;;
38613;SDS011;24369;49.480;8.488;2022-08-19T13:57:53;174.95;;;159.70;;
38613;SDS011;24369;49.480;8.488;2022-08-19T14:00:21;178.65;;;162.95;;
38613;SDS011;24369;49.480;8.488;2022-08-19T14:02:50;177.68;;;161.30;;
38613;SDS011;24369;49.480;8.488;2022-08-19T14:05:17;183.40;;;166.68;;
38613;SDS011;24369;49.480;8.488;2022-08-19T14:07:43;199.85;;;179.15;;
38613;SDS011;24369;49.480;8.488;2022-08-19T14:10:10;187.88;;;169.35;;
38613;SDS011;24369;49.480;8.488;2022-08-19T14:12:36;231.25;;;192.95;;
38613;SDS011;24369;49.480;8.488;2022-08-19T14:17:12;174.10;;;158.23;;
38613;SDS011;24369;49.480;8.488;2022-08-19T14:19:37;179.98;;;161.63;;
38613;SDS011;24369;49.480;8.488;2022-08-19T14:22:03;196.73;;;179.02;;
38613;SDS011;24369;49.480;8.488;2022-08-19T14:24:29;186.18;;;169.23;;
38613;SDS011;24369;49.480;8.488;2022-08-19T14:26:54;195.82;;;178.50;;
38613;SDS011;24369;49.480;8.488;2022-08-19T14:29:20;172.63;;;156.55;;
38613;SDS011;24369;49.480;8.488;2022-08-19T14:31:45;187.75;;;169.35;;
38613;SDS011;24369;49.480;8.488;2022-08-19T14:34:10;190.10;;;172.50;;
38613;SDS011;24369;49.480;8.488;2022-08-19T14:36:37;214.07;;;187.75;;
38613;SDS011;24369;49.480;8.488;2022-08-19T14:41:39;203.98;;;185.88;;
38613;SDS011;24369;49.480;8.488;2022-08-19T14:44:05;183.68;;;168.07;;
38613;SDS011;24369;49.480;8.488;2022-08-19T14:46:31;192.23;;;176.43;;
38613;SDS011;24369;49.480;8.488;2022-08-19T14:48:56;182.93;;;167.35;;
38613;SDS011;24369;49.480;8.488;2022-08-19T14:51:23;185.43;;;169.57;;
38613;SDS011;24369;49.480;8.488;2022-08-19T14:53:50;181.98;;;164.48;;
38613;SDS011;24369;49.480;8.488;2022-08-19T14:56:19;190.48;;;173.38;;
38613;SDS011;24369;49.480;8.488;2022-08-19T14:58:46;203.05;;;182.27;;
38613;SDS011;24369;49.480;8.488;2022-08-19T15:01:12;207.55;;;188.57;;
38613;SDS011;24369;49.480;8.488;2022-08-19T15:06:04;190.07;;;173.65;;
38613;SDS011;24369;49.480;8.488;2022-08-19T15:08:31;182.15;;;165.77;;
38613;SDS011;24369;49.480;8.488;2022-08-19T15:10:59;184.63;;;168.93;;
38613;SDS011;24369;49.480;8.488;2022-08-19T15:13:25;182.95;;;166.93;;
38613;SDS011;24369;49.480;8.488;2022-08-19T15:15:52;182.55;;;166.27;;
38613;SDS011;24369;49.480;8.488;2022-08-19T15:18:18;183.15;;;166.75;;
38613;SDS011;24369;49.480;8.488;2022-08-19T15:20:45;199.10;;;179.40;;
38613;SDS011;24369;49.480;8.488;2022-08-19T15:23:11;179.68;;;163.55;;
38613;SDS011;24369;49.480;8.488;2022-08-19T15:25:37;189.20;;;170.38;;
38613;SDS011;24369;49.480;8.488;2022-08-19T15:30:35;190.65;;;171.52;;
38613;SDS011;24369;49.480;8.488;2022-08-19T15:33:01;182.70;;;165.35;;